VJC872 VVDN-VVCR
Flight info
| Callsign | VJC872 |
|---|---|
| Flight time | N/A |
| Altitude | 28000 |
| Route | KUMUN W2 KAMGO KAMGO1A |
| Aircraft | A321/M-SDE3FGHIRWY/LB1 |
Departure
| Time | 2026-04-18 07:00 |
|---|---|
| Airport | Da Nang International Airport (VVDN) |
Arrival
| Time | N/A |
|---|---|
| Airport | Cam Ranh International Airport / Cam Ranh Air Base (VVCR) |
| Time | Latitude | Longitude | Altitude | Speed | Heading |
|---|---|---|---|---|---|
| 2026-04-18 06:14 | 16.05335 | 108.20176 | 33 ft | 0 kts | 81° |
| 2026-04-18 06:52 | 16.05334 | 108.20167 | 33 ft | 2 kts | 82° |
| 2026-04-18 06:52 | 16.05332 | 108.20151 | 33 ft | 3 kts | 81° |
| 2026-04-18 06:53 | 16.05329 | 108.20131 | 32 ft | 3 kts | 81° |
| 2026-04-18 06:53 | 16.05325 | 108.20108 | 33 ft | 3 kts | 81° |
| 2026-04-18 06:53 | 16.05321 | 108.20084 | 33 ft | 3 kts | 78° |
| 2026-04-18 06:53 | 16.05317 | 108.20064 | 33 ft | 2 kts | 67° |
| 2026-04-18 06:54 | 16.05312 | 108.20053 | 29 ft | 2 kts | 35° |
| 2026-04-18 06:54 | 16.05302 | 108.20049 | 29 ft | 2 kts | 353° |
| 2026-04-18 06:54 | 16.05294 | 108.20050 | 32 ft | 0 kts | 350° |
| 2026-04-18 06:55 | 16.05318 | 108.20046 | 31 ft | 7 kts | 352° |
| 2026-04-18 06:55 | 16.05379 | 108.20037 | 33 ft | 11 kts | 352° |
| 2026-04-18 06:55 | 16.05476 | 108.20023 | 33 ft | 17 kts | 352° |
| 2026-04-18 06:56 | 16.05590 | 108.20006 | 33 ft | 16 kts | 352° |
| 2026-04-18 06:56 | 16.05697 | 108.19991 | 33 ft | 15 kts | 352° |
| 2026-04-18 06:56 | 16.05798 | 108.19976 | 33 ft | 14 kts | 352° |
| 2026-04-18 06:56 | 16.05892 | 108.19962 | 33 ft | 13 kts | 352° |
| 2026-04-18 06:57 | 16.05978 | 108.19950 | 33 ft | 12 kts | 352° |
| 2026-04-18 06:57 | 16.06034 | 108.19882 | 33 ft | 5 kts | 268° |
| 2026-04-18 06:57 | 16.06029 | 108.19848 | 32 ft | 4 kts | 251° |
| 2026-04-18 06:58 | 16.06018 | 108.19826 | 33 ft | 3 kts | 238° |
| 2026-04-18 06:58 | 16.05996 | 108.19812 | 33 ft | 5 kts | 203° |
| 2026-04-18 06:58 | 16.05959 | 108.19809 | 33 ft | 6 kts | 178° |
| 2026-04-18 06:58 | 16.05912 | 108.19817 | 33 ft | 7 kts | 166° |
| 2026-04-18 06:59 | 16.05861 | 108.19826 | 33 ft | 8 kts | 172° |
| 2026-04-18 06:59 | 16.05699 | 108.19850 | 32 ft | 54 kts | 172° |
| 2026-04-18 06:59 | 16.05106 | 108.19936 | 33 ft | 115 kts | 171° |
| 2026-04-18 06:59 | 16.04143 | 108.20070 | 42 ft | 161 kts | 170° |
| 2026-04-18 07:00 | 16.03037 | 108.20223 | 636 ft | 158 kts | 168° |
| 2026-04-18 07:00 | 16.01925 | 108.20401 | 1142 ft | 165 kts | 167° |
| 2026-04-18 07:00 | 16.00755 | 108.20602 | 1550 ft | 180 kts | 168° |
| 2026-04-18 07:00 | 15.99450 | 108.20825 | 1741 ft | 201 kts | 167° |
| 2026-04-18 07:01 | 15.97997 | 108.21070 | 1878 ft | 222 kts | 168° |
| 2026-04-18 07:01 | 15.96390 | 108.21385 | 2065 ft | 247 kts | 159° |
| 2026-04-18 07:01 | 15.94990 | 108.22455 | 2510 ft | 259 kts | 124° |
| 2026-04-18 07:01 | 15.94121 | 108.24112 | 3282 ft | 265 kts | 112° |
| 2026-04-18 07:02 | 15.93461 | 108.25924 | 4036 ft | 270 kts | 108° |
| 2026-04-18 07:02 | 15.92894 | 108.27673 | 4761 ft | 274 kts | 108° |
| 2026-04-18 07:02 | 15.92127 | 108.29497 | 5492 ft | 279 kts | 124° |
| 2026-04-18 07:02 | 15.90779 | 108.30921 | 6230 ft | 283 kts | 140° |
| 2026-04-18 07:03 | 15.89232 | 108.32203 | 6973 ft | 286 kts | 141° |
| 2026-04-18 07:03 | 15.87650 | 108.33481 | 7724 ft | 289 kts | 141° |
| 2026-04-18 07:03 | 15.86048 | 108.34765 | 8459 ft | 292 kts | 141° |
| 2026-04-18 07:03 | 15.85192 | 108.35450 | 8837 ft | 293 kts | 140° |
| 2026-04-18 07:04 | 15.83573 | 108.36766 | 9536 ft | 297 kts | 141° |
| 2026-04-18 07:04 | 15.81928 | 108.38086 | 10221 ft | 302 kts | 141° |
| 2026-04-18 07:04 | 15.80198 | 108.39468 | 10406 ft | 325 kts | 141° |
| 2026-04-18 07:04 | 15.78348 | 108.40951 | 10621 ft | 344 kts | 141° |
| 2026-04-18 07:05 | 15.76433 | 108.42485 | 11146 ft | 351 kts | 141° |
| 2026-04-18 07:05 | 15.74490 | 108.44044 | 11790 ft | 355 kts | 141° |
| 2026-04-18 07:05 | 15.72526 | 108.45616 | 12435 ft | 359 kts | 141° |
| 2026-04-18 07:05 | 15.70535 | 108.47212 | 13080 ft | 363 kts | 141° |
| 2026-04-18 07:06 | 15.68530 | 108.48821 | 13689 ft | 367 kts | 141° |
| 2026-04-18 07:06 | 15.67479 | 108.49667 | 13971 ft | 368 kts | 142° |
| 2026-04-18 07:06 | 15.65445 | 108.51309 | 14517 ft | 372 kts | 142° |
| 2026-04-18 07:06 | 15.63393 | 108.52963 | 15060 ft | 376 kts | 142° |
| 2026-04-18 07:07 | 15.61311 | 108.54630 | 15601 ft | 379 kts | 143° |
| 2026-04-18 07:07 | 15.59203 | 108.56301 | 16134 ft | 383 kts | 143° |
| 2026-04-18 07:07 | 15.57071 | 108.57981 | 16658 ft | 387 kts | 144° |
| 2026-04-18 07:07 | 15.54914 | 108.59676 | 17189 ft | 390 kts | 144° |
| 2026-04-18 07:08 | 15.52767 | 108.61363 | 17711 ft | 394 kts | 144° |
| 2026-04-18 07:08 | 15.50576 | 108.63082 | 18228 ft | 397 kts | 144° |
| 2026-04-18 07:08 | 15.48366 | 108.64817 | 18683 ft | 400 kts | 144° |
| 2026-04-18 07:08 | 15.46144 | 108.66567 | 19125 ft | 403 kts | 144° |
| 2026-04-18 07:09 | 15.43905 | 108.68331 | 19572 ft | 405 kts | 144° |
| 2026-04-18 07:09 | 15.41652 | 108.70105 | 20027 ft | 408 kts | 144° |
| 2026-04-18 07:09 | 15.39388 | 108.71890 | 20478 ft | 410 kts | 144° |
| 2026-04-18 07:09 | 15.37112 | 108.73690 | 20913 ft | 413 kts | 144° |
| 2026-04-18 07:10 | 15.34822 | 108.75504 | 21335 ft | 416 kts | 144° |
| 2026-04-18 07:10 | 15.32517 | 108.77332 | 21753 ft | 418 kts | 144° |
| 2026-04-18 07:10 | 15.30197 | 108.79171 | 22174 ft | 421 kts | 144° |
| 2026-04-18 07:10 | 15.27866 | 108.81024 | 22584 ft | 424 kts | 144° |
| 2026-04-18 07:11 | 15.25521 | 108.82889 | 22986 ft | 426 kts | 144° |
| 2026-04-18 07:11 | 15.23160 | 108.84765 | 23376 ft | 429 kts | 144° |
| 2026-04-18 07:11 | 15.20783 | 108.86651 | 23718 ft | 432 kts | 144° |
| 2026-04-18 07:11 | 15.18393 | 108.88547 | 24040 ft | 434 kts | 144° |
| 2026-04-18 07:12 | 15.15990 | 108.90454 | 24367 ft | 436 kts | 144° |
| 2026-04-18 07:12 | 15.13581 | 108.92365 | 24696 ft | 438 kts | 144° |
| 2026-04-18 07:12 | 15.11157 | 108.94288 | 25023 ft | 440 kts | 144° |
| 2026-04-18 07:12 | 15.08724 | 108.96221 | 25351 ft | 442 kts | 144° |
| 2026-04-18 07:13 | 15.06282 | 108.98161 | 25680 ft | 443 kts | 144° |
| 2026-04-18 07:13 | 15.04661 | 108.99449 | 25883 ft | 445 kts | 144° |
| 2026-04-18 07:13 | 15.01366 | 109.02067 | 26310 ft | 447 kts | 144° |
| 2026-04-18 07:13 | 14.99727 | 109.03370 | 26515 ft | 449 kts | 144° |
| 2026-04-18 07:14 | 14.96407 | 109.06011 | 26928 ft | 451 kts | 144° |
| 2026-04-18 07:14 | 14.93945 | 109.07968 | 27224 ft | 453 kts | 144° |
| 2026-04-18 07:14 | 14.91440 | 109.09961 | 27536 ft | 455 kts | 144° |
| 2026-04-18 07:14 | 14.88926 | 109.11962 | 27812 ft | 457 kts | 144° |
| 2026-04-18 07:15 | 14.86407 | 109.13967 | 27885 ft | 457 kts | 144° |
| 2026-04-18 07:15 | 14.84705 | 109.15322 | 27892 ft | 457 kts | 144° |
| 2026-04-18 07:15 | 14.82190 | 109.17321 | 27886 ft | 457 kts | 144° |
| 2026-04-18 07:15 | 14.79670 | 109.19322 | 27889 ft | 456 kts | 144° |
| 2026-04-18 07:16 | 14.77152 | 109.21321 | 27891 ft | 456 kts | 144° |
| 2026-04-18 07:16 | 14.74628 | 109.23319 | 27890 ft | 457 kts | 144° |
| 2026-04-18 07:16 | 14.72110 | 109.25312 | 27891 ft | 457 kts | 144° |
| 2026-04-18 07:16 | 14.69617 | 109.27283 | 27888 ft | 457 kts | 144° |
| 2026-04-18 07:17 | 14.67093 | 109.29277 | 27889 ft | 457 kts | 144° |
| 2026-04-18 07:17 | 14.64569 | 109.31268 | 27888 ft | 457 kts | 144° |
| 2026-04-18 07:17 | 14.62045 | 109.33258 | 27886 ft | 456 kts | 144° |
| 2026-04-18 07:17 | 14.59521 | 109.35248 | 27883 ft | 456 kts | 144° |
| 2026-04-18 07:18 | 14.56997 | 109.37237 | 27879 ft | 456 kts | 144° |
| 2026-04-18 07:18 | 14.54473 | 109.39224 | 27876 ft | 456 kts | 144° |
| 2026-04-18 07:18 | 14.51948 | 109.41211 | 27874 ft | 456 kts | 144° |
| 2026-04-18 07:18 | 14.49426 | 109.43195 | 27873 ft | 456 kts | 144° |
| 2026-04-18 07:19 | 14.46898 | 109.45185 | 27872 ft | 456 kts | 144° |
| 2026-04-18 07:19 | 14.44375 | 109.47169 | 27877 ft | 456 kts | 144° |
| 2026-04-18 07:19 | 14.41846 | 109.49158 | 27877 ft | 457 kts | 144° |
| 2026-04-18 07:19 | 14.39323 | 109.51140 | 27877 ft | 457 kts | 144° |
| 2026-04-18 07:20 | 14.36793 | 109.53125 | 27876 ft | 457 kts | 144° |
| 2026-04-18 07:20 | 14.34265 | 109.55110 | 27876 ft | 457 kts | 144° |
| 2026-04-18 07:20 | 14.31735 | 109.57095 | 27879 ft | 457 kts | 144° |
| 2026-04-18 07:20 | 14.29209 | 109.59079 | 27875 ft | 457 kts | 144° |
| 2026-04-18 07:21 | 14.26676 | 109.61064 | 27879 ft | 457 kts | 144° |
| 2026-04-18 07:21 | 14.24148 | 109.63044 | 27877 ft | 457 kts | 144° |
| 2026-04-18 07:21 | 14.21616 | 109.65026 | 27879 ft | 457 kts | 144° |
| 2026-04-18 07:21 | 14.19086 | 109.67004 | 27878 ft | 457 kts | 144° |
| 2026-04-18 07:22 | 14.16555 | 109.68983 | 27875 ft | 457 kts | 144° |
| 2026-04-18 07:22 | 14.14023 | 109.70960 | 27873 ft | 457 kts | 144° |
| 2026-04-18 07:22 | 14.11422 | 109.72772 | 27889 ft | 446 kts | 154° |
| 2026-04-18 07:22 | 14.08592 | 109.73873 | 27890 ft | 437 kts | 169° |
| 2026-04-18 07:23 | 14.05601 | 109.74207 | 27893 ft | 432 kts | 184° |
| 2026-04-18 07:23 | 14.02656 | 109.73747 | 27894 ft | 427 kts | 198° |
| 2026-04-18 07:23 | 13.99932 | 109.72551 | 27892 ft | 424 kts | 213° |
| 2026-04-18 07:23 | 13.97601 | 109.70719 | 27892 ft | 421 kts | 226° |
| 2026-04-18 07:24 | 13.95788 | 109.68364 | 27887 ft | 419 kts | 240° |
| 2026-04-18 07:24 | 13.94599 | 109.65639 | 27889 ft | 418 kts | 254° |
| 2026-04-18 07:24 | 13.94088 | 109.62704 | 27890 ft | 417 kts | 268° |
| 2026-04-18 07:24 | 13.94279 | 109.59728 | 27886 ft | 417 kts | 281° |
| 2026-04-18 07:25 | 13.95167 | 109.56891 | 27875 ft | 418 kts | 295° |
| 2026-04-18 07:25 | 13.96696 | 109.54356 | 27875 ft | 419 kts | 308° |
| 2026-04-18 07:25 | 13.98776 | 109.52257 | 27869 ft | 421 kts | 320° |
| 2026-04-18 07:25 | 14.00946 | 109.50254 | 27862 ft | 418 kts | 307° |
| 2026-04-18 07:26 | 14.02325 | 109.47655 | 27862 ft | 414 kts | 285° |
| 2026-04-18 07:26 | 14.02668 | 109.44732 | 27860 ft | 413 kts | 267° |
| 2026-04-18 07:26 | 14.02253 | 109.41814 | 27858 ft | 413 kts | 258° |
| 2026-04-18 07:26 | 14.01678 | 109.38912 | 27858 ft | 414 kts | 259° |
| 2026-04-18 07:27 | 14.01172 | 109.35990 | 27853 ft | 415 kts | 260° |
| 2026-04-18 07:27 | 14.00697 | 109.33054 | 27859 ft | 416 kts | 261° |
| 2026-04-18 07:27 | 14.00227 | 109.30118 | 27863 ft | 416 kts | 261° |
| 2026-04-18 07:27 | 13.99744 | 109.27176 | 27865 ft | 417 kts | 260° |
| 2026-04-18 07:28 | 13.99247 | 109.24237 | 27865 ft | 417 kts | 260° |
| 2026-04-18 07:28 | 13.98737 | 109.21292 | 27864 ft | 417 kts | 260° |
| 2026-04-18 07:28 | 13.98222 | 109.18352 | 27866 ft | 418 kts | 260° |
| 2026-04-18 07:28 | 13.97704 | 109.15414 | 27869 ft | 417 kts | 260° |
| 2026-04-18 07:29 | 13.97168 | 109.12475 | 27868 ft | 417 kts | 257° |
| 2026-04-18 07:29 | 13.96111 | 109.09704 | 27865 ft | 417 kts | 239° |
| 2026-04-18 07:29 | 13.94298 | 109.07435 | 27868 ft | 419 kts | 222° |
| 2026-04-18 07:29 | 13.91856 | 109.05802 | 27865 ft | 421 kts | 205° |
| 2026-04-18 07:30 | 13.89029 | 109.05013 | 27866 ft | 425 kts | 186° |
| 2026-04-18 07:30 | 13.86061 | 109.05086 | 27863 ft | 427 kts | 177° |
| 2026-04-18 07:30 | 13.83095 | 109.05346 | 27861 ft | 428 kts | 177° |
| 2026-04-18 07:30 | 13.80124 | 109.05616 | 27862 ft | 429 kts | 177° |
| 2026-04-18 07:31 | 13.77150 | 109.05889 | 27860 ft | 429 kts | 177° |
| 2026-04-18 07:31 | 13.74169 | 109.06160 | 27864 ft | 430 kts | 177° |
| 2026-04-18 07:31 | 13.71191 | 109.06426 | 27867 ft | 431 kts | 177° |
| 2026-04-18 07:31 | 13.68202 | 109.06688 | 27865 ft | 431 kts | 177° |
| 2026-04-18 07:32 | 13.65210 | 109.06950 | 27868 ft | 432 kts | 177° |
| 2026-04-18 07:32 | 13.62215 | 109.07212 | 27869 ft | 432 kts | 177° |
| 2026-04-18 07:32 | 13.59222 | 109.07476 | 27868 ft | 432 kts | 177° |
| 2026-04-18 07:32 | 13.56229 | 109.07740 | 27870 ft | 432 kts | 177° |
| 2026-04-18 07:33 | 13.53234 | 109.08002 | 27873 ft | 432 kts | 177° |
| 2026-04-18 07:33 | 13.50232 | 109.08262 | 27876 ft | 433 kts | 177° |
| 2026-04-18 07:33 | 13.47231 | 109.08520 | 27876 ft | 433 kts | 177° |
| 2026-04-18 07:33 | 13.44230 | 109.08780 | 27876 ft | 433 kts | 177° |
| 2026-04-18 07:34 | 13.41232 | 109.09042 | 27874 ft | 433 kts | 177° |
| 2026-04-18 07:34 | 13.38229 | 109.09306 | 27873 ft | 432 kts | 177° |
| 2026-04-18 07:34 | 13.35231 | 109.09573 | 27876 ft | 433 kts | 177° |
| 2026-04-18 07:34 | 13.32234 | 109.09841 | 27873 ft | 433 kts | 177° |
| 2026-04-18 07:35 | 13.29237 | 109.10124 | 27875 ft | 433 kts | 174° |
| 2026-04-18 07:35 | 13.26273 | 109.10723 | 27875 ft | 434 kts | 169° |
| 2026-04-18 07:35 | 13.23324 | 109.11416 | 27872 ft | 434 kts | 169° |
| 2026-04-18 07:35 | 13.20378 | 109.12107 | 27873 ft | 434 kts | 169° |
| 2026-04-18 07:36 | 13.17432 | 109.12799 | 27874 ft | 434 kts | 169° |
| 2026-04-18 07:36 | 13.14532 | 109.13478 | 27871 ft | 434 kts | 169° |
| 2026-04-18 07:36 | 13.11587 | 109.14169 | 27871 ft | 434 kts | 169° |
| 2026-04-18 07:36 | 13.08643 | 109.14860 | 27869 ft | 434 kts | 169° |
| 2026-04-18 07:37 | 13.05710 | 109.15550 | 27789 ft | 430 kts | 169° |
| 2026-04-18 07:37 | 13.02815 | 109.16234 | 27529 ft | 425 kts | 169° |
| 2026-04-18 07:37 | 12.99935 | 109.16911 | 27291 ft | 423 kts | 169° |
| 2026-04-18 07:37 | 12.97084 | 109.17580 | 26972 ft | 418 kts | 169° |
| 2026-04-18 07:38 | 12.94259 | 109.18242 | 26470 ft | 415 kts | 169° |
| 2026-04-18 07:38 | 12.91453 | 109.18902 | 25965 ft | 411 kts | 169° |
| 2026-04-18 07:38 | 12.88686 | 109.19552 | 25238 ft | 406 kts | 169° |
| 2026-04-18 07:38 | 12.85947 | 109.20193 | 24537 ft | 402 kts | 169° |
| 2026-04-18 07:39 | 12.83402 | 109.20787 | 23892 ft | 397 kts | 169° |
| 2026-04-18 07:39 | 12.80717 | 109.21411 | 23179 ft | 393 kts | 169° |
| 2026-04-18 07:39 | 12.78060 | 109.22032 | 22410 ft | 389 kts | 169° |
| 2026-04-18 07:39 | 12.75439 | 109.22646 | 21674 ft | 384 kts | 169° |
| 2026-04-18 07:40 | 12.72849 | 109.23256 | 20959 ft | 380 kts | 168° |
| 2026-04-18 07:40 | 12.70290 | 109.23858 | 20269 ft | 375 kts | 168° |
| 2026-04-18 07:40 | 12.67760 | 109.24453 | 19608 ft | 371 kts | 168° |
| 2026-04-18 07:40 | 12.65254 | 109.25039 | 18953 ft | 367 kts | 168° |
| 2026-04-18 07:41 | 12.62780 | 109.25617 | 18319 ft | 363 kts | 168° |
| 2026-04-18 07:41 | 12.60329 | 109.26190 | 17614 ft | 359 kts | 168° |
| 2026-04-18 07:41 | 12.57905 | 109.26757 | 16899 ft | 356 kts | 168° |
| 2026-04-18 07:41 | 12.55501 | 109.27316 | 16204 ft | 353 kts | 168° |
| 2026-04-18 07:42 | 12.53121 | 109.27872 | 15524 ft | 350 kts | 167° |
| 2026-04-18 07:42 | 12.50756 | 109.28424 | 14876 ft | 347 kts | 167° |
| 2026-04-18 07:42 | 12.48528 | 109.28944 | 14270 ft | 344 kts | 167° |
| 2026-04-18 07:42 | 12.46199 | 109.29489 | 13638 ft | 342 kts | 167° |
| 2026-04-18 07:43 | 12.43889 | 109.30030 | 12951 ft | 339 kts | 167° |
| 2026-04-18 07:43 | 12.41590 | 109.30569 | 12351 ft | 339 kts | 166° |
| 2026-04-18 07:43 | 12.39315 | 109.31103 | 12116 ft | 332 kts | 166° |
| 2026-04-18 07:43 | 12.37084 | 109.31623 | 11900 ft | 326 kts | 166° |
| 2026-04-18 07:44 | 12.34879 | 109.32134 | 11894 ft | 326 kts | 166° |
| 2026-04-18 07:44 | 12.32663 | 109.32640 | 11748 ft | 326 kts | 167° |
| 2026-04-18 07:44 | 12.30448 | 109.33114 | 11501 ft | 325 kts | 167° |
| 2026-04-18 07:44 | 12.28230 | 109.33572 | 11265 ft | 324 kts | 168° |
| 2026-04-18 07:45 | 12.26027 | 109.34023 | 11042 ft | 323 kts | 167° |
| 2026-04-18 07:45 | 12.23825 | 109.34475 | 10802 ft | 322 kts | 167° |
| 2026-04-18 07:45 | 12.21659 | 109.34921 | 10567 ft | 321 kts | 167° |
| 2026-04-18 07:45 | 12.19473 | 109.35371 | 10343 ft | 320 kts | 167° |
| 2026-04-18 07:46 | 12.17292 | 109.35826 | 10110 ft | 319 kts | 167° |
| 2026-04-18 07:46 | 12.15127 | 109.36282 | 9884 ft | 318 kts | 167° |
| 2026-04-18 07:46 | 12.12970 | 109.36736 | 9746 ft | 316 kts | 167° |
| 2026-04-18 07:46 | 12.10817 | 109.37189 | 9614 ft | 316 kts | 167° |
| 2026-04-18 07:47 | 12.08661 | 109.37641 | 9487 ft | 315 kts | 167° |
| 2026-04-18 07:47 | 12.06507 | 109.38048 | 9361 ft | 316 kts | 173° |
| 2026-04-18 07:47 | 12.04337 | 109.38049 | 9160 ft | 305 kts | 187° |
| 2026-04-18 07:47 | 12.02331 | 109.37590 | 8909 ft | 290 kts | 199° |
| 2026-04-18 07:48 | 12.00424 | 109.36888 | 8340 ft | 292 kts | 200° |
| 2026-04-18 07:48 | 11.98521 | 109.36180 | 7985 ft | 290 kts | 200° |
| 2026-04-18 07:48 | 11.96632 | 109.35480 | 7637 ft | 288 kts | 200° |
| 2026-04-18 07:48 | 11.94755 | 109.34785 | 7295 ft | 286 kts | 200° |
| 2026-04-18 07:49 | 11.92890 | 109.34097 | 6956 ft | 284 kts | 201° |
| 2026-04-18 07:49 | 11.91047 | 109.33419 | 6604 ft | 277 kts | 201° |
| 2026-04-18 07:49 | 11.89264 | 109.32764 | 6228 ft | 269 kts | 201° |
| 2026-04-18 07:49 | 11.87508 | 109.32121 | 5748 ft | 266 kts | 201° |
| 2026-04-18 07:50 | 11.85784 | 109.31488 | 5376 ft | 260 kts | 201° |
| 2026-04-18 07:50 | 11.84098 | 109.30870 | 5054 ft | 254 kts | 201° |
| 2026-04-18 07:50 | 11.82448 | 109.30264 | 5001 ft | 255 kts | 201° |
| 2026-04-18 07:50 | 11.80917 | 109.29402 | 4758 ft | 251 kts | 226° |
| 2026-04-18 07:51 | 11.79983 | 109.27946 | 4446 ft | 245 kts | 255° |
| 2026-04-18 07:51 | 11.79819 | 109.26243 | 4102 ft | 241 kts | 281° |
| 2026-04-18 07:51 | 11.80380 | 109.24644 | 3735 ft | 241 kts | 297° |
| 2026-04-18 07:51 | 11.81101 | 109.23141 | 3627 ft | 228 kts | 297° |
| 2026-04-18 07:52 | 11.81791 | 109.21698 | 3274 ft | 226 kts | 297° |
| 2026-04-18 07:52 | 11.82469 | 109.20280 | 3115 ft | 217 kts | 297° |
| 2026-04-18 07:52 | 11.83254 | 109.18998 | 2927 ft | 211 kts | 314° |
| 2026-04-18 07:52 | 11.84374 | 109.18069 | 2601 ft | 207 kts | 334° |
| 2026-04-18 07:53 | 11.85700 | 109.17591 | 2346 ft | 195 kts | 355° |
| 2026-04-18 07:53 | 11.86968 | 109.17566 | 2263 ft | 172 kts | 12° |
| 2026-04-18 07:53 | 11.88069 | 109.17865 | 2205 ft | 159 kts | 22° |
| 2026-04-18 07:53 | 11.89108 | 109.18224 | 2181 ft | 156 kts | 21° |
| 2026-04-18 07:54 | 11.90136 | 109.18579 | 1977 ft | 156 kts | 21° |
| 2026-04-18 07:54 | 11.91135 | 109.18924 | 1774 ft | 146 kts | 23° |
| 2026-04-18 07:54 | 11.92071 | 109.19248 | 1560 ft | 140 kts | 23° |
| 2026-04-18 07:54 | 11.92996 | 109.19569 | 1349 ft | 140 kts | 23° |
| 2026-04-18 07:55 | 11.93917 | 109.19888 | 1155 ft | 138 kts | 23° |
| 2026-04-18 07:55 | 11.94827 | 109.20204 | 942 ft | 139 kts | 23° |
| 2026-04-18 07:55 | 11.95745 | 109.20522 | 718 ft | 139 kts | 23° |
| 2026-04-18 07:55 | 11.96657 | 109.20841 | 546 ft | 137 kts | 25° |
| 2026-04-18 07:56 | 11.97563 | 109.21131 | 296 ft | 137 kts | 21° |
| 2026-04-18 07:56 | 11.98462 | 109.21452 | 118 ft | 137 kts | 23° |
| 2026-04-18 07:56 | 11.99317 | 109.21764 | 50 ft | 111 kts | 23° |